EHGR/GLZ METAR and TAF weather

Enter ICAO airport designator
Station Type Date Time Source
EHGR METAR 2019/04/25 21:55 UTC NOAA

EHGR 252155Z AUTO 16006KT 9999 OVC120 11/08 Q1008 BLU


Station Type Date Time Source
EHGR Decoded METAR 2019/04/25 21:55 UTC NOAA

Gilze-Rijen, Netherlands (EHGR) 51-34N 004-56E 24M
Apr 25, 2019 - 05:55 PM EDT / 2019.04.25 2155 UTC
Wind: from the SSE (160 degrees) at 7 MPH (6 KT):0
Visibility: greater than 7 mile(s):0
Sky conditions: overcast
Temperature: 51 F (11 C)
Dew Point: 46 F (8 C)
Relative Humidity: 81%
Pressure (altimeter): 29.77 in. Hg (1008 hPa)
ob: EHGR 252155Z AUTO 16006KT 9999 OVC120 11/08 Q1008 BLU
cycle: 22

Station Type Date Time Source
EHGR TAF 2019/04/25 17:15 UTC NOAA

TAF TAF EHGR 251644Z 2517/2605 18010KT CAVOK PROB30
TEMPO 2517/2520 SCT020 BKN040

Example: see airport list